createdAt,value
2023-05-10T00:02:05.738Z,95855.69
2023-05-10T00:04:32.591Z,95853.66
2023-05-10T00:06:59.399Z,95857.78
2023-05-10T00:09:26.267Z,95864.31
2023-05-10T00:11:53.143Z,95864.06
2023-05-10T00:14:20.206Z,95860.66
2023-05-10T00:16:47.285Z,95866.72
2023-05-10T00:19:14.197Z,95866.63
2023-05-10T00:21:41.135Z,95860.38
2023-05-10T00:24:08.133Z,95868.13
2023-05-10T00:26:35.009Z,95861.53
2023-05-10T00:29:01.836Z,95865.44
2023-05-10T00:31:28.609Z,95860.78
2023-05-10T00:33:56.766Z,95856.72
2023-05-10T00:36:23.644Z,95858.69
2023-05-10T00:38:50.420Z,95860.09
2023-05-10T00:41:17.622Z,95858.81
2023-05-10T00:43:44.505Z,95851.59
2023-05-10T00:46:11.857Z,95854.44
2023-05-10T00:48:39.085Z,95857.31
2023-05-10T00:51:06.021Z,95854.81
2023-05-10T00:53:33.832Z,95852.69
2023-05-10T00:56:00.967Z,95855.44
2023-05-10T00:58:29.268Z,95854.81
2023-05-10T01:00:59.467Z,95851.69
2023-05-10T01:03:27.232Z,95843.25
2023-05-10T01:05:54.288Z,95852.22
2023-05-10T01:08:21.362Z,95848.19
2023-05-10T01:10:50.127Z,95846.97
2023-05-10T01:13:45.442Z,95853.94
2023-05-10T01:16:12.736Z,95845.72
2023-05-10T01:18:42.618Z,95848.19
2023-05-10T01:21:12.418Z,95844.03
2023-05-10T01:24:05.221Z,95845.22
2023-05-10T01:27:19.541Z,95848.34
2023-05-10T01:30:24.621Z,95846.78
2023-05-10T01:33:01.727Z,95843.69
2023-05-10T01:35:43.709Z,95844.50
2023-05-10T01:38:34.135Z,95845.34
2023-05-10T01:41:19.677Z,95851.09
2023-05-10T01:44:35.826Z,95846.78
2023-05-10T01:47:12.178Z,95841.78
2023-05-10T01:50:03.140Z,95843.22
2023-05-10T01:52:44.778Z,95844.50
2023-05-10T01:55:17.562Z,95846.94
2023-05-10T01:57:47.510Z,95843.38
2023-05-10T02:00:17.400Z,95844.63
2023-05-10T02:02:50.190Z,95847.09
2023-05-10T02:05:18.468Z,95844.53
2023-05-10T02:07:46.127Z,95844.69
2023-05-10T02:10:14.530Z,95852.72
2023-05-10T02:12:48.672Z,95849.09
2023-05-10T02:15:23.348Z,95846.47
2023-05-10T02:17:50.817Z,95846.69
2023-05-10T02:20:19.654Z,95853.59
2023-05-10T02:22:50.352Z,95850.94
2023-05-10T02:25:21.042Z,95852.09
2023-05-10T02:27:49.431Z,95847.25
2023-05-10T02:30:18.068Z,95845.16
2023-05-10T02:32:46.094Z,95846.13
2023-05-10T02:35:13.873Z,95849.19
2023-05-10T02:37:41.557Z,95850.84
2023-05-10T02:40:10.278Z,95848.22
2023-05-10T02:42:39.868Z,95846.81
2023-05-10T02:45:13.017Z,95846.50
2023-05-10T02:47:40.372Z,95854.38
2023-05-10T02:50:08.149Z,95853.72
2023-05-10T02:52:49.263Z,95856.53
2023-05-10T02:55:17.841Z,95856.28
2023-05-10T02:57:52.291Z,95853.72
2023-05-10T03:00:19.471Z,95857.56
2023-05-10T03:02:46.329Z,95852.09
2023-05-10T03:05:13.203Z,95853.09
2023-05-10T03:07:40.179Z,95851.94
2023-05-10T03:10:07.911Z,95859.03
2023-05-10T03:13:16.164Z,95850.34
2023-05-10T03:16:10.103Z,95846.97
2023-05-10T03:19:03.264Z,95859.03
2023-05-10T03:21:31.667Z,95862.88
2023-05-10T03:24:07.254Z,95851.38
2023-05-10T03:26:34.602Z,95861.75
2023-05-10T03:29:02.122Z,95857.81
2023-05-10T03:31:28.981Z,95858.22
2023-05-10T03:33:55.867Z,95860.16
2023-05-10T03:36:22.721Z,95857.50
2023-05-10T03:38:49.582Z,95872.03
2023-05-10T03:41:16.547Z,95865.28
2023-05-10T03:43:43.421Z,95869.44
2023-05-10T03:46:10.562Z,95870.59
2023-05-10T03:48:37.464Z,95872.97
2023-05-10T03:51:04.537Z,95869.00
2023-05-10T03:53:31.355Z,95869.47
2023-05-10T03:55:58.168Z,95867.84
2023-05-10T03:58:25.005Z,95872.97
2023-05-10T04:00:52.960Z,95883.84
2023-05-10T04:03:19.912Z,95872.34
2023-05-10T04:05:46.764Z,95870.75
2023-05-10T04:08:13.697Z,95886.97
2023-05-10T04:10:40.699Z,95883.28
2023-05-10T04:13:07.599Z,95881.66
2023-05-10T04:15:34.749Z,95882.88
2023-05-10T04:18:01.893Z,95887.75
2023-05-10T04:20:28.956Z,95890.66
2023-05-10T04:22:55.982Z,95883.75
2023-05-10T04:25:22.778Z,95885.84
2023-05-10T04:27:49.604Z,95881.81
2023-05-10T04:30:16.563Z,95883.25
2023-05-10T04:32:43.638Z,95884.47
2023-05-10T04:35:11.636Z,95884.22
2023-05-10T04:37:38.547Z,95888.91
2023-05-10T04:40:07.105Z,95893.88
2023-05-10T04:42:34.111Z,95895.72
2023-05-10T04:45:00.919Z,95890.41
2023-05-10T04:47:27.810Z,95892.25
2023-05-10T04:49:54.684Z,95896.84
2023-05-10T04:52:21.712Z,95899.16
2023-05-10T04:54:48.567Z,95899.75
2023-05-10T04:57:15.590Z,95900.16
2023-05-10T04:59:43.458Z,95899.41
2023-05-10T05:02:10.339Z,95904.09
2023-05-10T05:04:37.222Z,95899.50
2023-05-10T05:07:04.043Z,95912.66
2023-05-10T05:09:32.937Z,95913.00
2023-05-10T05:12:00.357Z,95914.84
2023-05-10T05:14:27.371Z,95915.25
2023-05-10T05:16:54.633Z,95908.97
2023-05-10T05:19:21.681Z,95913.63
2023-05-10T05:21:48.515Z,95919.19
2023-05-10T05:24:15.350Z,95925.84
2023-05-10T05:26:42.465Z,95931.47
2023-05-10T05:29:09.359Z,95936.06
2023-05-10T05:31:36.261Z,95937.84
2023-05-10T05:34:03.203Z,95940.97
2023-05-10T05:36:30.002Z,95938.22
2023-05-10T05:38:56.807Z,95939.19
2023-05-10T05:41:24.988Z,95946.59
2023-05-10T05:43:51.789Z,95953.59
2023-05-10T05:46:18.695Z,95953.16
2023-05-10T05:48:45.515Z,95957.31
2023-05-10T05:51:12.440Z,95957.22
2023-05-10T05:53:39.265Z,95960.88
2023-05-10T05:56:06.275Z,95961.47
2023-05-10T05:58:33.115Z,95968.31
2023-05-10T06:00:59.993Z,95972.94
2023-05-10T06:03:26.973Z,95981.13
2023-05-10T06:05:53.884Z,95972.44
2023-05-10T06:08:21.297Z,95967.28
2023-05-10T06:10:48.150Z,95980.19
2023-05-10T06:13:16.592Z,95985.53
2023-05-10T06:15:43.515Z,95985.47
2023-05-10T06:18:10.486Z,95990.06
2023-05-10T06:20:37.327Z,95993.94
2023-05-10T06:23:04.199Z,96003.75
2023-05-10T06:25:30.988Z,96007.78
2023-05-10T06:27:58.926Z,96004.72
2023-05-10T06:30:29.799Z,96001.56
2023-05-10T06:32:57.622Z,96002.91
2023-05-10T06:35:24.581Z,96009.25
2023-05-10T06:37:52.386Z,96008.59
2023-05-10T06:40:19.482Z,96018.63
2023-05-10T06:42:47.333Z,96020.31
2023-05-10T06:45:15.734Z,96022.38
2023-05-10T06:47:43.259Z,96027.06
2023-05-10T06:50:12.554Z,96025.75
2023-05-10T06:52:40.110Z,96027.81
2023-05-10T06:55:07.706Z,96032.16
2023-05-10T06:57:34.624Z,96034.56
2023-05-10T07:00:02.019Z,96036.38
2023-05-10T07:02:29.494Z,96034.41
2023-05-10T07:04:56.450Z,96037.53
2023-05-10T07:07:23.306Z,96036.00
2023-05-10T07:09:50.972Z,96042.31
2023-05-10T07:12:18.028Z,96030.53
2023-05-10T07:14:45.000Z,96039.44
2023-05-10T07:17:11.864Z,96038.88
2023-05-10T07:19:38.743Z,96038.84
2023-05-10T07:22:05.601Z,96045.22
2023-05-10T07:24:34.053Z,96051.75
2023-05-10T07:27:00.935Z,96046.41
2023-05-10T07:29:27.828Z,96059.41
2023-05-10T07:31:56.498Z,96048.97
2023-05-10T07:34:26.015Z,96050.31
2023-05-10T07:36:53.288Z,96054.09
2023-05-10T07:39:27.270Z,96055.94
2023-05-10T07:41:56.028Z,96060.09
2023-05-10T07:44:23.112Z,96054.31
2023-05-10T07:46:50.046Z,96052.47
2023-05-10T07:49:17.209Z,96050.50
2023-05-10T07:51:44.303Z,96051.13
2023-05-10T07:54:11.238Z,96056.13
2023-05-10T07:56:38.132Z,96058.13
2023-05-10T07:59:07.352Z,96051.63
2023-05-10T08:01:35.559Z,96052.00
2023-05-10T08:04:03.133Z,96060.25
2023-05-10T08:06:30.956Z,96047.50
2023-05-10T08:08:58.250Z,96041.34
2023-05-10T08:11:25.626Z,96048.78
2023-05-10T08:13:52.812Z,96047.78
2023-05-10T08:16:20.338Z,96047.75
2023-05-10T08:18:48.198Z,96048.81
2023-05-10T08:21:16.413Z,96049.94
2023-05-10T08:23:44.753Z,96051.41
2023-05-10T08:26:12.045Z,96053.28
2023-05-10T08:28:38.982Z,96050.94
2023-05-10T08:31:06.795Z,96064.59
2023-05-10T08:33:34.083Z,96063.28
2023-05-10T08:36:00.976Z,96064.09
2023-05-10T08:38:28.031Z,96068.31
2023-05-10T08:40:59.818Z,96065.28
2023-05-10T08:43:31.210Z,96071.56
2023-05-10T08:46:03.913Z,96074.66
2023-05-10T08:48:32.049Z,96077.63
2023-05-10T08:51:02.972Z,96074.75
2023-05-10T08:53:32.071Z,96079.44
2023-05-10T08:55:59.138Z,96078.25
2023-05-10T08:58:26.493Z,96079.31
2023-05-10T09:00:53.864Z,96080.56
2023-05-10T09:03:20.874Z,96081.91
2023-05-10T09:05:49.453Z,96077.16
2023-05-10T09:08:17.506Z,96081.16
2023-05-10T09:10:49.303Z,96089.25
2023-05-10T09:13:16.725Z,96079.22
2023-05-10T09:15:45.379Z,96074.03
2023-05-10T09:18:12.872Z,96074.75
2023-05-10T09:20:39.918Z,96069.44
2023-05-10T09:23:06.868Z,96079.66
2023-05-10T09:25:38.138Z,96072.47
2023-05-10T09:28:09.274Z,96081.84
2023-05-10T09:30:36.813Z,96072.63
2023-05-10T09:33:04.437Z,96072.06
2023-05-10T09:35:33.773Z,96074.47
2023-05-10T09:38:05.837Z,96079.78
2023-05-10T09:40:33.529Z,96083.44
2023-05-10T09:43:09.888Z,96081.25
2023-05-10T09:45:38.969Z,96082.09
2023-05-10T09:48:06.965Z,96084.22
2023-05-10T09:50:35.102Z,96080.94
2023-05-10T09:53:04.947Z,96086.91
2023-05-10T09:55:47.402Z,96080.88
2023-05-10T09:58:15.268Z,96081.50
2023-05-10T10:00:45.702Z,96078.06
2023-05-10T10:03:17.936Z,96072.56
2023-05-10T10:05:46.220Z,96086.00
2023-05-10T10:08:14.355Z,96086.00
2023-05-10T10:10:42.324Z,96078.78
2023-05-10T10:13:09.563Z,96062.97
2023-05-10T10:15:36.674Z,96075.31
2023-05-10T10:18:07.415Z,96080.16
2023-05-10T10:20:34.776Z,96082.75
2023-05-10T10:23:01.879Z,96079.63
2023-05-10T10:25:29.222Z,96071.75
2023-05-10T10:28:26.192Z,96075.94
2023-05-10T10:30:57.034Z,96076.75
2023-05-10T10:34:02.818Z,96080.84
2023-05-10T10:36:31.317Z,96074.38
2023-05-10T10:39:01.249Z,96071.50
2023-05-10T10:41:37.097Z,96074.97
2023-05-10T10:44:23.215Z,96070.91
2023-05-10T10:47:25.449Z,96074.41
2023-05-10T10:50:05.484Z,96075.56
2023-05-10T10:52:37.464Z,96077.81
2023-05-10T10:55:18.055Z,96068.00
2023-05-10T10:57:48.009Z,96070.97
2023-05-10T11:00:37.921Z,96072.50
2023-05-10T11:03:10.082Z,96061.88
2023-05-10T11:05:48.128Z,96046.13
2023-05-10T11:08:32.129Z,96047.47
2023-05-10T11:11:03.034Z,96051.41
2023-05-10T11:13:32.692Z,96054.19
2023-05-10T11:16:14.298Z,96052.22
2023-05-10T11:18:41.588Z,96048.13
2023-05-10T11:21:11.652Z,96057.53
2023-05-10T11:23:44.298Z,96056.38
2023-05-10T11:26:11.916Z,96051.78
2023-05-10T11:28:49.684Z,96057.66
2023-05-10T11:31:21.250Z,96065.38
2023-05-10T11:33:54.660Z,96061.63
2023-05-10T11:36:35.575Z,96068.03
2023-05-10T11:39:03.832Z,96073.81
2023-05-10T11:41:32.101Z,96070.50
2023-05-10T11:43:59.906Z,96073.03
2023-05-10T11:46:29.174Z,96073.72
2023-05-10T11:49:02.624Z,96074.81
2023-05-10T11:51:29.512Z,96075.31
2023-05-10T11:53:58.123Z,96077.22
2023-05-10T11:56:27.021Z,96079.41
2023-05-10T11:58:57.287Z,96083.78
2023-05-10T12:01:25.796Z,96075.81
2023-05-10T12:03:55.206Z,96079.00
2023-05-10T12:06:22.770Z,96080.84
2023-05-10T12:08:54.559Z,96086.00
2023-05-10T12:11:25.784Z,96085.25
2023-05-10T12:13:52.714Z,96083.13
2023-05-10T12:16:29.989Z,96071.66
2023-05-10T12:19:01.622Z,96084.38
2023-05-10T12:21:31.761Z,96082.56
2023-05-10T12:24:04.612Z,96079.41
2023-05-10T12:26:31.872Z,96072.00
2023-05-10T12:29:19.217Z,96068.69
2023-05-10T12:31:55.495Z,96087.88
2023-05-10T12:34:36.223Z,96084.28
2023-05-10T12:37:04.569Z,96092.25
2023-05-10T12:39:45.142Z,96096.06
2023-05-10T12:42:12.406Z,96095.31
2023-05-10T12:44:40.648Z,96093.06
2023-05-10T12:47:07.856Z,96110.47
2023-05-10T12:49:35.082Z,96098.47
2023-05-10T12:52:02.236Z,96117.25
2023-05-10T12:54:29.143Z,96113.31
2023-05-10T12:56:56.006Z,96113.34
2023-05-10T12:59:23.873Z,96112.41
2023-05-10T13:01:50.756Z,96119.69
2023-05-10T13:04:17.627Z,96112.94
2023-05-10T13:06:44.515Z,96118.84
2023-05-10T13:09:11.507Z,96115.13
2023-05-10T13:11:38.452Z,96111.19
2023-05-10T13:14:05.371Z,96117.34
2023-05-10T13:16:32.726Z,96108.09
2023-05-10T13:18:59.789Z,96118.38
2023-05-10T13:21:26.791Z,96114.94
2023-05-10T13:23:54.384Z,96125.00
2023-05-10T13:26:21.242Z,96123.22
2023-05-10T13:28:49.769Z,96124.66
2023-05-10T13:31:16.824Z,96127.72
2023-05-10T13:33:43.717Z,96128.38
2023-05-10T13:36:10.523Z,96114.41
2023-05-10T13:38:37.437Z,96128.38
2023-05-10T13:41:04.476Z,96130.88
2023-05-10T13:43:31.309Z,96129.66
2023-05-10T13:45:58.269Z,96132.97
2023-05-10T13:48:25.203Z,96129.63
2023-05-10T13:50:52.062Z,96123.44
2023-05-10T13:53:18.935Z,96119.16
2023-05-10T13:55:45.729Z,96121.03
2023-05-10T13:58:12.592Z,96121.72
2023-05-10T14:00:39.460Z,96116.06
2023-05-10T14:03:07.382Z,96117.69
2023-05-10T14:05:34.322Z,96119.19
2023-05-10T14:08:01.165Z,96118.34
2023-05-10T14:10:28.047Z,96118.91
2023-05-10T14:12:54.864Z,96132.84
2023-05-10T14:15:21.843Z,96120.69
2023-05-10T14:17:48.948Z,96126.97
2023-05-10T14:20:15.984Z,96117.69
2023-05-10T14:22:42.835Z,96123.34
2023-05-10T14:25:10.293Z,96116.19
2023-05-10T14:27:37.502Z,96117.69
2023-05-10T14:30:04.816Z,96117.00
2023-05-10T14:32:33.022Z,96111.06
2023-05-10T14:35:00.500Z,96122.50
2023-05-10T14:37:27.756Z,96103.94
2023-05-10T14:39:54.953Z,96118.47
2023-05-10T14:42:22.310Z,96112.84
2023-05-10T14:44:49.191Z,96116.59
2023-05-10T14:47:16.065Z,96116.13
2023-05-10T14:49:42.943Z,96121.31
2023-05-10T14:52:09.817Z,96123.81
2023-05-10T14:54:36.698Z,96127.47
2023-05-10T14:57:03.590Z,96123.44
2023-05-10T14:59:30.403Z,96124.78
2023-05-10T15:01:57.591Z,96123.59
2023-05-10T15:04:25.997Z,96119.88
2023-05-10T15:06:59.990Z,96122.69
2023-05-10T15:09:28.423Z,96122.56
2023-05-10T15:11:56.096Z,96127.75
2023-05-10T15:14:24.208Z,96134.19
2023-05-10T15:16:51.144Z,96132.88
2023-05-10T15:19:18.004Z,96133.34
2023-05-10T15:21:45.609Z,96135.06
2023-05-10T15:24:12.496Z,96143.53
2023-05-10T15:26:39.459Z,96144.97
2023-05-10T15:29:06.307Z,96143.22
2023-05-10T15:31:36.052Z,96141.66
2023-05-10T15:34:03.017Z,96143.59
2023-05-10T15:36:29.867Z,96152.31
2023-05-10T15:38:56.869Z,96147.63
2023-05-10T15:41:24.505Z,96151.13
2023-05-10T15:43:51.418Z,96151.97
2023-05-10T15:46:18.295Z,96165.13
2023-05-10T15:48:45.200Z,96159.13
2023-05-10T15:51:12.379Z,96172.47
2023-05-10T15:53:46.573Z,96172.47
2023-05-10T15:56:19.874Z,96176.84
2023-05-10T15:58:46.789Z,96184.88
2023-05-10T16:01:13.728Z,96208.03
2023-05-10T16:03:40.644Z,96199.84
2023-05-10T16:06:07.989Z,96204.28
2023-05-10T16:08:35.417Z,96202.28
2023-05-10T16:11:03.775Z,96207.91
2023-05-10T16:13:30.691Z,96209.00
2023-05-10T16:15:58.190Z,96206.38
2023-05-10T16:18:25.300Z,96203.16
2023-05-10T16:20:53.781Z,96197.63
2023-05-10T16:23:20.848Z,96206.16
2023-05-10T16:25:47.726Z,96222.19
2023-05-10T16:28:14.541Z,96206.50
2023-05-10T16:30:41.463Z,96219.97
2023-05-10T16:33:08.403Z,96215.28
2023-05-10T16:35:35.351Z,96213.25
2023-05-10T16:38:02.219Z,96213.97
2023-05-10T16:40:29.095Z,96216.75
2023-05-10T16:42:56.083Z,96215.03
2023-05-10T16:45:23.068Z,96223.31
2023-05-10T16:47:49.977Z,96219.06
2023-05-10T16:50:17.558Z,96224.78
2023-05-10T16:52:44.509Z,96224.22
2023-05-10T16:55:11.417Z,96223.75
2023-05-10T16:57:38.210Z,96223.97
2023-05-10T17:00:06.259Z,96231.56
2023-05-10T17:02:33.210Z,96240.31
2023-05-10T17:05:00.174Z,96235.94
2023-05-10T17:07:29.320Z,96243.53
2023-05-10T17:09:56.622Z,96243.41
2023-05-10T17:12:23.850Z,96241.91
2023-05-10T17:14:50.800Z,96249.28
2023-05-10T17:17:17.658Z,96252.25
2023-05-10T17:19:47.570Z,96253.41
2023-05-10T17:22:14.358Z,96248.00
2023-05-10T17:24:41.167Z,96240.88
2023-05-10T17:27:08.295Z,96250.94
2023-05-10T17:29:35.129Z,96252.13
2023-05-10T17:32:02.100Z,96245.09
2023-05-10T17:34:29.099Z,96257.56
2023-05-10T17:36:55.906Z,96260.69
2023-05-10T17:39:25.875Z,96254.50
2023-05-10T17:41:52.727Z,96257.69
2023-05-10T17:44:19.815Z,96257.94
2023-05-10T17:46:46.762Z,96265.56
2023-05-10T17:49:13.586Z,96257.13
2023-05-10T17:51:43.868Z,96262.22
2023-05-10T17:54:10.659Z,96264.41
2023-05-10T17:56:37.648Z,96262.16
2023-05-10T17:59:05.791Z,96263.69
2023-05-10T18:01:32.819Z,96264.13
2023-05-10T18:03:59.663Z,96269.41
2023-05-10T18:06:26.791Z,96270.78
2023-05-10T18:08:53.575Z,96262.84
2023-05-10T18:11:20.397Z,96275.69
2023-05-10T18:13:47.236Z,96278.72
2023-05-10T18:16:14.265Z,96280.34
2023-05-10T18:18:41.112Z,96275.06
2023-05-10T18:21:08.036Z,96277.41
2023-05-10T18:23:34.888Z,96281.88
2023-05-10T18:26:02.431Z,96290.47
2023-05-10T18:28:29.274Z,96283.44
2023-05-10T18:30:56.199Z,96284.59
2023-05-10T18:33:23.062Z,96289.59
2023-05-10T18:35:56.035Z,96292.00
2023-05-10T18:38:22.984Z,96289.00
2023-05-10T18:40:49.783Z,96291.19
2023-05-10T18:43:16.753Z,96290.63
2023-05-10T18:45:43.902Z,96287.66
2023-05-10T18:48:10.980Z,96291.66
2023-05-10T18:50:37.922Z,96301.50
2023-05-10T18:53:05.031Z,96297.72
2023-05-10T18:55:32.066Z,96300.38
2023-05-10T18:57:58.916Z,96296.19
2023-05-10T19:00:28.346Z,96305.25
2023-05-10T19:02:55.691Z,96296.72
2023-05-10T19:05:28.289Z,96303.03
2023-05-10T19:07:55.208Z,96306.50
2023-05-10T19:10:22.362Z,96310.63
2023-05-10T19:12:49.184Z,96309.81
2023-05-10T19:15:19.205Z,96302.50
2023-05-10T19:17:47.898Z,96319.34
2023-05-10T19:20:15.799Z,96307.38
2023-05-10T19:22:58.138Z,96308.31
2023-05-10T19:25:29.791Z,96312.88
2023-05-10T19:27:59.789Z,96300.69
2023-05-10T19:30:26.964Z,96305.34
2023-05-10T19:32:55.745Z,96313.50
2023-05-10T19:35:24.070Z,96313.84
2023-05-10T19:37:54.759Z,96317.81
2023-05-10T19:40:22.745Z,96320.66
2023-05-10T19:42:49.603Z,96320.69
2023-05-10T19:45:21.902Z,96314.94
2023-05-10T19:47:49.073Z,96328.34
2023-05-10T19:50:16.842Z,96314.66
2023-05-10T19:52:44.849Z,96317.72
2023-05-10T19:55:15.560Z,96322.69
2023-05-10T19:57:42.699Z,96323.00
2023-05-10T20:00:10.615Z,96324.84
2023-05-10T20:02:40.631Z,96322.19
2023-05-10T20:05:08.117Z,96330.91
2023-05-10T20:07:35.031Z,96331.59
2023-05-10T20:10:02.789Z,96328.72
2023-05-10T20:12:32.733Z,96328.06
2023-05-10T20:14:59.653Z,96334.31
2023-05-10T20:17:26.480Z,96341.59
2023-05-10T20:19:53.331Z,96335.94
2023-05-10T20:22:20.498Z,96334.06
2023-05-10T20:24:48.163Z,96339.41
2023-05-10T20:27:15.150Z,96333.38
2023-05-10T20:29:45.622Z,96333.53
2023-05-10T20:32:12.427Z,96331.75
2023-05-10T20:34:39.463Z,96331.13
2023-05-10T20:37:06.567Z,96337.19
2023-05-10T20:39:33.701Z,96331.31
2023-05-10T20:42:00.626Z,96328.59
2023-05-10T20:44:27.596Z,96325.16
2023-05-10T20:46:54.787Z,96331.06
2023-05-10T20:49:21.861Z,96326.56
2023-05-10T20:51:48.766Z,96330.78
2023-05-10T20:54:15.686Z,96326.50
2023-05-10T20:56:42.518Z,96320.00
2023-05-10T20:59:09.353Z,96320.25
2023-05-10T21:01:36.272Z,96315.69
2023-05-10T21:04:03.695Z,96317.63
2023-05-10T21:06:31.934Z,96313.59
2023-05-10T21:08:58.796Z,96310.75
2023-05-10T21:11:25.702Z,96316.00
2023-05-10T21:13:52.652Z,96312.44
2023-05-10T21:16:20.371Z,96304.41
2023-05-10T21:18:47.288Z,96301.34
2023-05-10T21:21:14.259Z,96301.78
2023-05-10T21:23:41.144Z,96302.63
2023-05-10T21:26:07.963Z,96300.22
2023-05-10T21:28:34.772Z,96301.00
2023-05-10T21:31:01.701Z,96299.50
2023-05-10T21:33:29.036Z,96293.69
2023-05-10T21:35:56.667Z,96294.81
2023-05-10T21:38:23.584Z,96291.22
2023-05-10T21:40:50.454Z,96299.38
2023-05-10T21:43:17.312Z,96297.75
2023-05-10T21:45:44.141Z,96294.97
2023-05-10T21:48:11.035Z,96301.00
2023-05-10T21:50:37.936Z,96294.47
2023-05-10T21:53:04.935Z,96295.63
2023-05-10T21:55:31.971Z,96296.91
2023-05-10T21:57:58.842Z,96300.41
2023-05-10T22:00:26.460Z,96296.91
2023-05-10T22:02:53.452Z,96289.22
2023-05-10T22:05:21.113Z,96296.53
2023-05-10T22:07:47.914Z,96294.88
2023-05-10T22:10:14.779Z,96296.53
2023-05-10T22:12:41.645Z,96294.22
2023-05-10T22:15:10.677Z,96295.41
2023-05-10T22:17:39.792Z,96302.47
2023-05-10T22:20:08.437Z,96291.47
2023-05-10T22:22:36.470Z,96293.78
2023-05-10T22:25:04.770Z,96299.03
2023-05-10T22:27:31.572Z,96295.41
2023-05-10T22:29:58.386Z,96296.16
2023-05-10T22:32:25.619Z,96302.63
2023-05-10T22:34:52.682Z,96298.41
2023-05-10T22:37:19.476Z,96307.56
2023-05-10T22:39:46.766Z,96299.06
2023-05-10T22:42:13.555Z,96303.06
2023-05-10T22:44:40.449Z,96302.78
2023-05-10T22:47:08.901Z,96306.69
2023-05-10T22:49:35.863Z,96301.75
2023-05-10T22:52:02.771Z,96299.88
2023-05-10T22:54:29.645Z,96299.22
2023-05-10T22:56:57.012Z,96304.78
2023-05-10T22:59:24.039Z,96303.97
2023-05-10T23:01:51.011Z,96305.84
2023-05-10T23:04:17.953Z,96309.66
2023-05-10T23:06:45.889Z,96307.25
2023-05-10T23:09:12.761Z,96308.03
2023-05-10T23:11:39.592Z,96302.94
2023-05-10T23:14:06.660Z,96311.41
2023-05-10T23:16:33.532Z,96305.66
2023-05-10T23:19:00.489Z,96308.06
2023-05-10T23:21:28.766Z,96304.25
2023-05-10T23:23:57.003Z,96302.88
2023-05-10T23:26:23.934Z,96303.28
2023-05-10T23:28:50.865Z,96309.66
2023-05-10T23:31:17.659Z,96305.41
2023-05-10T23:33:44.493Z,96304.13
2023-05-10T23:36:11.296Z,96294.13
2023-05-10T23:38:39.298Z,96299.28
2023-05-10T23:41:06.267Z,96292.91
2023-05-10T23:43:33.132Z,96284.16
2023-05-10T23:45:59.981Z,96288.59
2023-05-10T23:48:26.889Z,96294.31
2023-05-10T23:50:53.708Z,96291.44
2023-05-10T23:53:20.642Z,96295.41
2023-05-10T23:55:47.469Z,96287.19
2023-05-10T23:58:14.334Z,96288.88
